sensor_id;sensor_type;location;lat;lon;timestamp;P1;durP1;ratioP1;P2;durP2;ratioP2
25913;SDS011;13718;50.922;5.346;2022-09-21T00:00:00;20.05;;;10.55;;
25913;SDS011;13718;50.922;5.346;2022-09-21T00:02:26;21.23;;;10.68;;
25913;SDS011;13718;50.922;5.346;2022-09-21T00:04:52;20.90;;;10.55;;
25913;SDS011;13718;50.922;5.346;2022-09-21T00:07:18;20.35;;;10.82;;
25913;SDS011;13718;50.922;5.346;2022-09-21T00:09:44;20.20;;;11.02;;
25913;SDS011;13718;50.922;5.346;2022-09-21T00:12:09;22.55;;;11.18;;
25913;SDS011;13718;50.922;5.346;2022-09-21T00:14:36;24.15;;;10.32;;
25913;SDS011;13718;50.922;5.346;2022-09-21T00:17:02;19.63;;;10.52;;
25913;SDS011;13718;50.922;5.346;2022-09-21T00:19:27;25.00;;;10.95;;
25913;SDS011;13718;50.922;5.346;2022-09-21T00:21:53;24.73;;;11.05;;
25913;SDS011;13718;50.922;5.346;2022-09-21T00:24:19;28.15;;;12.50;;
25913;SDS011;13718;50.922;5.346;2022-09-21T00:26:45;26.60;;;12.35;;
25913;SDS011;13718;50.922;5.346;2022-09-21T00:29:11;22.42;;;10.55;;
25913;SDS011;13718;50.922;5.346;2022-09-21T00:31:37;21.67;;;10.98;;
25913;SDS011;13718;50.922;5.346;2022-09-21T00:34:03;28.08;;;11.73;;
25913;SDS011;13718;50.922;5.346;2022-09-21T00:36:31;22.48;;;11.57;;
25913;SDS011;13718;50.922;5.346;2022-09-21T00:38:58;21.30;;;10.63;;
25913;SDS011;13718;50.922;5.346;2022-09-21T00:41:25;22.55;;;10.45;;
25913;SDS011;13718;50.922;5.346;2022-09-21T00:46:42;21.30;;;10.88;;
25913;SDS011;13718;50.922;5.346;2022-09-21T00:49:10;20.77;;;11.13;;
25913;SDS011;13718;50.922;5.346;2022-09-21T00:51:36;24.05;;;11.82;;
25913;SDS011;13718;50.922;5.346;2022-09-21T00:54:04;25.73;;;13.13;;
25913;SDS011;13718;50.922;5.346;2022-09-21T00:56:36;25.70;;;12.00;;
25913;SDS011;13718;50.922;5.346;2022-09-21T00:59:03;27.05;;;12.95;;
25913;SDS011;13718;50.922;5.346;2022-09-21T01:01:30;24.25;;;12.00;;
25913;SDS011;13718;50.922;5.346;2022-09-21T01:03:55;25.55;;;12.57;;
25913;SDS011;13718;50.922;5.346;2022-09-21T01:06:21;23.50;;;11.75;;
25913;SDS011;13718;50.922;5.346;2022-09-21T01:08:49;26.15;;;13.05;;
25913;SDS011;13718;50.922;5.346;2022-09-21T01:14:13;24.67;;;12.02;;
25913;SDS011;13718;50.922;5.346;2022-09-21T01:25:24;24.08;;;12.15;;
25913;SDS011;13718;50.922;5.346;2022-09-21T01:30:53;24.60;;;13.23;;
25913;SDS011;13718;50.922;5.346;2022-09-21T01:33:28;28.52;;;13.15;;
25913;SDS011;13718;50.922;5.346;2022-09-21T01:36:00;25.38;;;13.10;;
25913;SDS011;13718;50.922;5.346;2022-09-21T01:38:32;24.97;;;13.90;;
25913;SDS011;13718;50.922;5.346;2022-09-21T01:41:04;26.67;;;14.00;;
25913;SDS011;13718;50.922;5.346;2022-09-21T01:43:36;31.83;;;12.88;;
25913;SDS011;13718;50.922;5.346;2022-09-21T01:46:20;29.30;;;14.13;;
25913;SDS011;13718;50.922;5.346;2022-09-21T01:48:51;22.60;;;12.13;;
25913;SDS011;13718;50.922;5.346;2022-09-21T01:51:20;29.73;;;12.70;;
25913;SDS011;13718;50.922;5.346;2022-09-21T01:54:00;26.60;;;12.57;;
25913;SDS011;13718;50.922;5.346;2022-09-21T01:56:35;25.45;;;12.43;;
25913;SDS011;13718;50.922;5.346;2022-09-21T01:59:09;25.75;;;12.48;;
25913;SDS011;13718;50.922;5.346;2022-09-21T02:01:44;24.55;;;12.02;;
25913;SDS011;13718;50.922;5.346;2022-09-21T02:04:33;25.88;;;13.65;;
25913;SDS011;13718;50.922;5.346;2022-09-21T02:07:00;23.23;;;12.82;;
25913;SDS011;13718;50.922;5.346;2022-09-21T02:09:26;29.98;;;13.05;;
25913;SDS011;13718;50.922;5.346;2022-09-21T02:11:52;26.90;;;13.27;;
25913;SDS011;13718;50.922;5.346;2022-09-21T02:14:21;26.05;;;13.32;;
25913;SDS011;13718;50.922;5.346;2022-09-21T02:19:37;27.95;;;12.23;;
25913;SDS011;13718;50.922;5.346;2022-09-21T02:22:12;23.58;;;12.18;;
25913;SDS011;13718;50.922;5.346;2022-09-21T02:24:54;22.40;;;11.98;;
25913;SDS011;13718;50.922;5.346;2022-09-21T02:27:44;24.42;;;12.13;;
25913;SDS011;13718;50.922;5.346;2022-09-21T02:30:21;27.67;;;12.23;;
25913;SDS011;13718;50.922;5.346;2022-09-21T02:35:43;20.90;;;11.40;;
25913;SDS011;13718;50.922;5.346;2022-09-21T02:38:21;22.15;;;11.38;;
25913;SDS011;13718;50.922;5.346;2022-09-21T02:40:51;26.88;;;12.23;;
25913;SDS011;13718;50.922;5.346;2022-09-21T02:43:22;27.80;;;12.13;;
25913;SDS011;13718;50.922;5.346;2022-09-21T02:46:02;26.23;;;12.05;;
25913;SDS011;13718;50.922;5.346;2022-09-21T02:48:35;23.90;;;12.38;;
25913;SDS011;13718;50.922;5.346;2022-09-21T02:51:07;22.17;;;11.85;;
25913;SDS011;13718;50.922;5.346;2022-09-21T02:53:36;25.13;;;12.88;;
25913;SDS011;13718;50.922;5.346;2022-09-21T02:56:03;27.52;;;13.38;;
25913;SDS011;13718;50.922;5.346;2022-09-21T02:58:51;28.45;;;12.93;;
25913;SDS011;13718;50.922;5.346;2022-09-21T03:01:21;23.08;;;12.20;;
25913;SDS011;13718;50.922;5.346;2022-09-21T03:03:48;26.65;;;12.15;;
25913;SDS011;13718;50.922;5.346;2022-09-21T03:06:14;24.42;;;12.40;;
25913;SDS011;13718;50.922;5.346;2022-09-21T03:08:40;25.13;;;12.98;;
25913;SDS011;13718;50.922;5.346;2022-09-21T03:11:06;22.98;;;12.30;;
25913;SDS011;13718;50.922;5.346;2022-09-21T03:13:31;22.45;;;11.75;;
25913;SDS011;13718;50.922;5.346;2022-09-21T03:15:58;26.40;;;12.50;;
25913;SDS011;13718;50.922;5.346;2022-09-21T03:18:25;25.55;;;13.05;;
25913;SDS011;13718;50.922;5.346;2022-09-21T03:20:50;29.00;;;13.60;;
25913;SDS011;13718;50.922;5.346;2022-09-21T03:23:16;22.80;;;12.50;;
25913;SDS011;13718;50.922;5.346;2022-09-21T03:25:45;25.02;;;12.57;;
25913;SDS011;13718;50.922;5.346;2022-09-21T03:28:11;23.42;;;13.45;;
25913;SDS011;13718;50.922;5.346;2022-09-21T03:30:40;24.98;;;12.30;;
25913;SDS011;13718;50.922;5.346;2022-09-21T03:33:07;23.85;;;13.45;;
25913;SDS011;13718;50.922;5.346;2022-09-21T03:35:32;26.60;;;13.63;;
25913;SDS011;13718;50.922;5.346;2022-09-21T03:37:59;25.45;;;14.05;;
25913;SDS011;13718;50.922;5.346;2022-09-21T03:40:25;32.72;;;15.18;;
25913;SDS011;13718;50.922;5.346;2022-09-21T03:42:51;28.75;;;14.50;;
25913;SDS011;13718;50.922;5.346;2022-09-21T03:45:17;30.80;;;14.98;;
25913;SDS011;13718;50.922;5.346;2022-09-21T03:47:43;31.25;;;15.15;;
25913;SDS011;13718;50.922;5.346;2022-09-21T03:50:09;39.70;;;15.25;;
25913;SDS011;13718;50.922;5.346;2022-09-21T03:52:35;27.80;;;15.15;;
25913;SDS011;13718;50.922;5.346;2022-09-21T03:55:02;30.30;;;15.73;;
25913;SDS011;13718;50.922;5.346;2022-09-21T03:57:32;44.03;;;16.65;;
25913;SDS011;13718;50.922;5.346;2022-09-21T03:59:58;33.22;;;15.93;;
25913;SDS011;13718;50.922;5.346;2022-09-21T04:02:25;31.42;;;16.05;;
25913;SDS011;13718;50.922;5.346;2022-09-21T04:04:51;39.13;;;16.30;;
25913;SDS011;13718;50.922;5.346;2022-09-21T04:07:16;36.25;;;15.68;;
25913;SDS011;13718;50.922;5.346;2022-09-21T04:09:42;26.40;;;15.25;;
25913;SDS011;13718;50.922;5.346;2022-09-21T04:12:07;29.17;;;15.68;;
25913;SDS011;13718;50.922;5.346;2022-09-21T04:14:33;30.02;;;16.85;;
25913;SDS011;13718;50.922;5.346;2022-09-21T04:16:58;35.50;;;17.13;;
25913;SDS011;13718;50.922;5.346;2022-09-21T04:19:24;31.60;;;17.15;;
25913;SDS011;13718;50.922;5.346;2022-09-21T04:21:50;41.38;;;18.95;;
25913;SDS011;13718;50.922;5.346;2022-09-21T04:24:16;32.72;;;17.30;;
25913;SDS011;13718;50.922;5.346;2022-09-21T04:26:45;29.67;;;16.33;;
25913;SDS011;13718;50.922;5.346;2022-09-21T04:29:11;28.80;;;15.82;;
25913;SDS011;13718;50.922;5.346;2022-09-21T04:31:38;33.17;;;15.95;;
25913;SDS011;13718;50.922;5.346;2022-09-21T04:34:04;30.13;;;16.35;;
25913;SDS011;13718;50.922;5.346;2022-09-21T04:36:30;26.83;;;16.70;;
25913;SDS011;13718;50.922;5.346;2022-09-21T04:38:56;25.35;;;15.82;;
25913;SDS011;13718;50.922;5.346;2022-09-21T04:41:24;26.80;;;16.00;;
25913;SDS011;13718;50.922;5.346;2022-09-21T04:43:49;26.92;;;16.20;;
25913;SDS011;13718;50.922;5.346;2022-09-21T04:46:16;31.67;;;16.45;;
25913;SDS011;13718;50.922;5.346;2022-09-21T04:48:44;26.92;;;16.27;;
25913;SDS011;13718;50.922;5.346;2022-09-21T04:51:11;25.90;;;16.77;;
25913;SDS011;13718;50.922;5.346;2022-09-21T04:53:37;24.05;;;15.48;;
25913;SDS011;13718;50.922;5.346;2022-09-21T04:56:05;27.60;;;15.10;;
25913;SDS011;13718;50.922;5.346;2022-09-21T04:58:31;26.85;;;15.80;;
25913;SDS011;13718;50.922;5.346;2022-09-21T05:00:58;25.92;;;15.55;;
25913;SDS011;13718;50.922;5.346;2022-09-21T05:03:24;26.05;;;15.80;;
25913;SDS011;13718;50.922;5.346;2022-09-21T05:05:54;26.23;;;14.77;;
25913;SDS011;13718;50.922;5.346;2022-09-21T05:08:21;26.20;;;15.57;;
25913;SDS011;13718;50.922;5.346;2022-09-21T05:11:06;26.80;;;15.98;;
25913;SDS011;13718;50.922;5.346;2022-09-21T05:13:34;30.98;;;16.00;;
25913;SDS011;13718;50.922;5.346;2022-09-21T05:16:00;29.60;;;16.83;;
25913;SDS011;13718;50.922;5.346;2022-09-21T05:18:25;27.92;;;16.38;;
25913;SDS011;13718;50.922;5.346;2022-09-21T05:20:54;30.98;;;15.98;;
25913;SDS011;13718;50.922;5.346;2022-09-21T05:23:24;29.90;;;16.50;;
25913;SDS011;13718;50.922;5.346;2022-09-21T05:25:51;32.65;;;16.52;;
25913;SDS011;13718;50.922;5.346;2022-09-21T05:28:17;31.00;;;15.40;;
25913;SDS011;13718;50.922;5.346;2022-09-21T05:30:44;27.20;;;16.33;;
25913;SDS011;13718;50.922;5.346;2022-09-21T05:33:17;28.50;;;16.85;;
25913;SDS011;13718;50.922;5.346;2022-09-21T05:38:48;29.52;;;16.63;;
25913;SDS011;13718;50.922;5.346;2022-09-21T05:41:14;33.20;;;17.88;;
25913;SDS011;13718;50.922;5.346;2022-09-21T05:43:40;32.15;;;18.75;;
25913;SDS011;13718;50.922;5.346;2022-09-21T05:46:09;32.47;;;18.02;;
25913;SDS011;13718;50.922;5.346;2022-09-21T05:48:46;29.63;;;17.55;;
25913;SDS011;13718;50.922;5.346;2022-09-21T05:57:11;30.63;;;16.90;;
25913;SDS011;13718;50.922;5.346;2022-09-21T06:05:14;30.08;;;16.42;;
25913;SDS011;13718;50.922;5.346;2022-09-21T06:07:40;35.92;;;16.50;;
25913;SDS011;13718;50.922;5.346;2022-09-21T06:10:07;25.63;;;15.82;;
25913;SDS011;13718;50.922;5.346;2022-09-21T06:12:33;26.20;;;15.90;;
25913;SDS011;13718;50.922;5.346;2022-09-21T06:14:59;27.02;;;16.33;;
25913;SDS011;13718;50.922;5.346;2022-09-21T06:17:24;27.60;;;15.63;;
25913;SDS011;13718;50.922;5.346;2022-09-21T06:19:51;24.85;;;15.52;;
25913;SDS011;13718;50.922;5.346;2022-09-21T06:22:17;28.27;;;16.30;;
25913;SDS011;13718;50.922;5.346;2022-09-21T06:24:43;28.08;;;14.73;;
25913;SDS011;13718;50.922;5.346;2022-09-21T06:27:09;21.80;;;13.88;;
25913;SDS011;13718;50.922;5.346;2022-09-21T06:29:34;22.77;;;14.30;;
25913;SDS011;13718;50.922;5.346;2022-09-21T06:32:01;31.63;;;14.88;;
25913;SDS011;13718;50.922;5.346;2022-09-21T06:34:27;29.48;;;15.25;;
25913;SDS011;13718;50.922;5.346;2022-09-21T06:36:52;26.08;;;13.93;;
25913;SDS011;13718;50.922;5.346;2022-09-21T06:39:18;26.65;;;14.10;;
25913;SDS011;13718;50.922;5.346;2022-09-21T06:41:44;25.10;;;14.07;;
25913;SDS011;13718;50.922;5.346;2022-09-21T06:44:09;29.92;;;14.43;;
25913;SDS011;13718;50.922;5.346;2022-09-21T06:46:35;21.35;;;12.85;;
25913;SDS011;13718;50.922;5.346;2022-09-21T06:49:00;20.08;;;13.18;;
25913;SDS011;13718;50.922;5.346;2022-09-21T06:51:26;17.92;;;12.60;;
25913;SDS011;13718;50.922;5.346;2022-09-21T06:53:55;17.92;;;12.68;;
25913;SDS011;13718;50.922;5.346;2022-09-21T06:56:22;20.00;;;12.05;;
25913;SDS011;13718;50.922;5.346;2022-09-21T06:58:49;22.45;;;12.65;;
25913;SDS011;13718;50.922;5.346;2022-09-21T07:01:16;17.58;;;13.10;;
25913;SDS011;13718;50.922;5.346;2022-09-21T07:03:42;20.85;;;12.77;;
25913;SDS011;13718;50.922;5.346;2022-09-21T07:06:09;22.15;;;13.90;;
25913;SDS011;13718;50.922;5.346;2022-09-21T07:08:39;25.60;;;13.77;;
25913;SDS011;13718;50.922;5.346;2022-09-21T07:11:06;18.50;;;12.20;;
25913;SDS011;13718;50.922;5.346;2022-09-21T07:13:32;20.70;;;13.07;;
25913;SDS011;13718;50.922;5.346;2022-09-21T07:15:57;22.58;;;13.20;;
25913;SDS011;13718;50.922;5.346;2022-09-21T07:18:26;22.52;;;14.55;;
25913;SDS011;13718;50.922;5.346;2022-09-21T07:20:52;23.38;;;14.75;;
25913;SDS011;13718;50.922;5.346;2022-09-21T07:23:18;28.15;;;15.38;;
25913;SDS011;13718;50.922;5.346;2022-09-21T07:25:46;23.30;;;14.82;;
25913;SDS011;13718;50.922;5.346;2022-09-21T07:28:16;22.65;;;14.30;;
25913;SDS011;13718;50.922;5.346;2022-09-21T07:30:42;21.48;;;14.23;;
25913;SDS011;13718;50.922;5.346;2022-09-21T07:33:08;23.23;;;15.23;;
25913;SDS011;13718;50.922;5.346;2022-09-21T07:35:34;26.75;;;14.35;;
25913;SDS011;13718;50.922;5.346;2022-09-21T07:38:00;23.88;;;14.55;;
25913;SDS011;13718;50.922;5.346;2022-09-21T07:40:28;21.83;;;14.02;;
25913;SDS011;13718;50.922;5.346;2022-09-21T07:42:57;27.75;;;15.18;;
25913;SDS011;13718;50.922;5.346;2022-09-21T07:45:24;19.88;;;13.95;;
25913;SDS011;13718;50.922;5.346;2022-09-21T07:47:50;21.80;;;13.88;;
25913;SDS011;13718;50.922;5.346;2022-09-21T07:50:19;25.13;;;14.93;;
25913;SDS011;13718;50.922;5.346;2022-09-21T07:52:45;20.73;;;13.85;;
25913;SDS011;13718;50.922;5.346;2022-09-21T07:55:11;23.35;;;14.68;;
25913;SDS011;13718;50.922;5.346;2022-09-21T07:57:38;26.55;;;14.18;;
25913;SDS011;13718;50.922;5.346;2022-09-21T08:00:22;27.63;;;13.90;;
25913;SDS011;13718;50.922;5.346;2022-09-21T08:02:48;21.15;;;12.63;;
25913;SDS011;13718;50.922;5.346;2022-09-21T08:05:13;19.35;;;12.02;;
25913;SDS011;13718;50.922;5.346;2022-09-21T08:07:39;20.27;;;12.13;;
25913;SDS011;13718;50.922;5.346;2022-09-21T08:10:05;18.08;;;11.85;;
25913;SDS011;13718;50.922;5.346;2022-09-21T08:12:31;17.33;;;11.32;;
25913;SDS011;13718;50.922;5.346;2022-09-21T08:14:57;16.05;;;11.18;;
25913;SDS011;13718;50.922;5.346;2022-09-21T08:17:22;16.15;;;11.15;;
25913;SDS011;13718;50.922;5.346;2022-09-21T08:19:48;14.98;;;10.15;;
25913;SDS011;13718;50.922;5.346;2022-09-21T08:22:14;19.25;;;11.27;;
25913;SDS011;13718;50.922;5.346;2022-09-21T08:24:39;16.75;;;10.35;;
25913;SDS011;13718;50.922;5.346;2022-09-21T08:27:08;16.98;;;10.07;;
25913;SDS011;13718;50.922;5.346;2022-09-21T08:29:34;15.48;;;9.48;;
25913;SDS011;13718;50.922;5.346;2022-09-21T08:32:00;16.55;;;12.32;;
25913;SDS011;13718;50.922;5.346;2022-09-21T08:34:26;14.18;;;8.50;;
25913;SDS011;13718;50.922;5.346;2022-09-21T08:36:52;19.63;;;10.02;;
25913;SDS011;13718;50.922;5.346;2022-09-21T08:39:18;15.45;;;9.73;;
25913;SDS011;13718;50.922;5.346;2022-09-21T08:44:28;12.38;;;9.13;;
25913;SDS011;13718;50.922;5.346;2022-09-21T08:47:11;15.07;;;9.10;;
25913;SDS011;13718;50.922;5.346;2022-09-21T08:49:41;14.10;;;8.65;;
25913;SDS011;13718;50.922;5.346;2022-09-21T08:52:11;17.45;;;9.57;;
25913;SDS011;13718;50.922;5.346;2022-09-21T08:57:31;17.33;;;9.82;;
25913;SDS011;13718;50.922;5.346;2022-09-21T08:59:58;19.47;;;10.43;;
25913;SDS011;13718;50.922;5.346;2022-09-21T09:02:29;21.08;;;10.90;;
25913;SDS011;13718;50.922;5.346;2022-09-21T09:07:42;19.48;;;10.07;;
25913;SDS011;13718;50.922;5.346;2022-09-21T09:16:19;22.38;;;11.88;;
25913;SDS011;13718;50.922;5.346;2022-09-21T09:20:02;20.02;;;9.75;;
25913;SDS011;13718;50.922;5.346;2022-09-21T09:22:05;17.45;;;9.43;;
25913;SDS011;13718;50.922;5.346;2022-09-21T09:33:00;15.85;;;8.55;;
25913;SDS011;13718;50.922;5.346;2022-09-21T09:35:56;19.60;;;9.85;;
25913;SDS011;13718;50.922;5.346;2022-09-21T09:51:52;16.60;;;8.00;;
25913;SDS011;13718;50.922;5.346;2022-09-21T09:54:18;15.95;;;8.73;;
25913;SDS011;13718;50.922;5.346;2022-09-21T09:56:48;18.58;;;8.05;;
25913;SDS011;13718;50.922;5.346;2022-09-21T09:59:18;15.35;;;6.90;;
25913;SDS011;13718;50.922;5.346;2022-09-21T10:04:26;14.40;;;5.88;;
25913;SDS011;13718;50.922;5.346;2022-09-21T10:06:52;14.52;;;6.82;;
25913;SDS011;13718;50.922;5.346;2022-09-21T10:09:28;10.45;;;4.32;;
25913;SDS011;13718;50.922;5.346;2022-09-21T10:14:47;11.05;;;4.82;;
25913;SDS011;13718;50.922;5.346;2022-09-21T10:17:15;10.85;;;5.90;;
25913;SDS011;13718;50.922;5.346;2022-09-21T10:19:42;15.85;;;6.05;;
25913;SDS011;13718;50.922;5.346;2022-09-21T10:22:14;21.90;;;4.63;;
25913;SDS011;13718;50.922;5.346;2022-09-21T10:24:44;9.65;;;3.97;;
25913;SDS011;13718;50.922;5.346;2022-09-21T10:29:42;13.07;;;5.72;;
25913;SDS011;13718;50.922;5.346;2022-09-21T10:34:40;12.23;;;5.70;;
25913;SDS011;13718;50.922;5.346;2022-09-21T10:37:29;10.30;;;4.13;;
25913;SDS011;13718;50.922;5.346;2022-09-21T10:40:23;10.93;;;4.25;;
25913;SDS011;13718;50.922;5.346;2022-09-21T10:42:51;11.32;;;3.83;;
25913;SDS011;13718;50.922;5.346;2022-09-21T10:47:48;8.85;;;4.20;;
25913;SDS011;13718;50.922;5.346;2022-09-21T10:50:36;10.40;;;3.53;;
25913;SDS011;13718;50.922;5.346;2022-09-21T10:55:35;7.45;;;2.45;;
25913;SDS011;13718;50.922;5.346;2022-09-21T10:58:06;7.97;;;2.03;;
25913;SDS011;13718;50.922;5.346;2022-09-21T11:00:41;4.82;;;1.70;;
25913;SDS011;13718;50.922;5.346;2022-09-21T11:06:10;10.82;;;2.58;;
25913;SDS011;13718;50.922;5.346;2022-09-21T11:09:02;9.77;;;3.53;;
25913;SDS011;13718;50.922;5.346;2022-09-21T11:17:10;14.38;;;2.72;;
25913;SDS011;13718;50.922;5.346;2022-09-21T11:20:00;9.15;;;2.20;;
25913;SDS011;13718;50.922;5.346;2022-09-21T11:23:07;5.03;;;1.60;;
25913;SDS011;13718;50.922;5.346;2022-09-21T11:42:25;5.65;;;2.63;;
25913;SDS011;13718;50.922;5.346;2022-09-21T11:55:59;5.07;;;3.15;;
25913;SDS011;13718;50.922;5.346;2022-09-21T12:20:36;7.32;;;2.40;;
25913;SDS011;13718;50.922;5.346;2022-09-21T12:23:12;6.18;;;1.70;;
25913;SDS011;13718;50.922;5.346;2022-09-21T12:25:45;4.40;;;1.60;;
25913;SDS011;13718;50.922;5.346;2022-09-21T12:28:22;4.97;;;1.70;;
25913;SDS011;13718;50.922;5.346;2022-09-21T12:30:53;6.32;;;1.65;;
25913;SDS011;13718;50.922;5.346;2022-09-21T12:33:48;6.65;;;2.00;;
25913;SDS011;13718;50.922;5.346;2022-09-21T12:36:34;4.85;;;1.30;;
25913;SDS011;13718;50.922;5.346;2022-09-21T12:39:10;5.70;;;1.45;;
25913;SDS011;13718;50.922;5.346;2022-09-21T12:41:48;5.43;;;1.60;;
25913;SDS011;13718;50.922;5.346;2022-09-21T12:50:43;3.83;;;1.70;;
25913;SDS011;13718;50.922;5.346;2022-09-21T12:53:16;5.20;;;2.30;;
25913;SDS011;13718;50.922;5.346;2022-09-21T13:06:40;6.90;;;1.60;;
25913;SDS011;13718;50.922;5.346;2022-09-21T13:09:26;4.53;;;1.42;;
25913;SDS011;13718;50.922;5.346;2022-09-21T13:11:56;8.35;;;2.25;;
25913;SDS011;13718;50.922;5.346;2022-09-21T13:14:32;8.13;;;2.30;;
25913;SDS011;13718;50.922;5.346;2022-09-21T13:17:00;9.38;;;3.20;;
25913;SDS011;13718;50.922;5.346;2022-09-21T13:19:29;4.85;;;2.15;;
25913;SDS011;13718;50.922;5.346;2022-09-21T13:22:10;7.13;;;2.05;;
25913;SDS011;13718;50.922;5.346;2022-09-21T13:24:46;7.78;;;2.60;;
25913;SDS011;13718;50.922;5.346;2022-09-21T13:30:28;3.88;;;1.65;;
25913;SDS011;13718;50.922;5.346;2022-09-21T13:33:03;10.30;;;2.03;;
25913;SDS011;13718;50.922;5.346;2022-09-21T13:38:31;10.93;;;3.03;;
25913;SDS011;13718;50.922;5.346;2022-09-21T13:49:02;6.20;;;2.28;;
25913;SDS011;13718;50.922;5.346;2022-09-21T13:51:32;6.93;;;2.22;;
25913;SDS011;13718;50.922;5.346;2022-09-21T13:53:59;7.03;;;1.90;;
25913;SDS011;13718;50.922;5.346;2022-09-21T13:56:26;4.60;;;1.90;;
25913;SDS011;13718;50.922;5.346;2022-09-21T13:58:53;5.55;;;1.70;;
25913;SDS011;13718;50.922;5.346;2022-09-21T14:01:30;8.05;;;2.15;;
25913;SDS011;13718;50.922;5.346;2022-09-21T14:03:59;4.03;;;1.50;;
25913;SDS011;13718;50.922;5.346;2022-09-21T14:06:33;5.43;;;1.75;;
25913;SDS011;13718;50.922;5.346;2022-09-21T14:09:06;7.07;;;1.70;;
25913;SDS011;13718;50.922;5.346;2022-09-21T14:11:45;6.78;;;1.73;;
25913;SDS011;13718;50.922;5.346;2022-09-21T14:16:59;7.55;;;2.10;;
25913;SDS011;13718;50.922;5.346;2022-09-21T14:24:38;6.82;;;2.10;;
25913;SDS011;13718;50.922;5.346;2022-09-21T14:29:49;8.20;;;2.22;;
25913;SDS011;13718;50.922;5.346;2022-09-21T14:32:18;7.22;;;2.10;;
25913;SDS011;13718;50.922;5.346;2022-09-21T14:34:47;8.55;;;1.98;;
25913;SDS011;13718;50.922;5.346;2022-09-21T14:39:59;6.50;;;1.80;;
25913;SDS011;13718;50.922;5.346;2022-09-21T14:42:28;5.53;;;2.03;;
25913;SDS011;13718;50.922;5.346;2022-09-21T14:44:57;7.70;;;1.90;;
25913;SDS011;13718;50.922;5.346;2022-09-21T14:50:18;5.32;;;1.90;;
25913;SDS011;13718;50.922;5.346;2022-09-21T15:00:53;6.35;;;2.08;;
25913;SDS011;13718;50.922;5.346;2022-09-21T15:06:13;7.53;;;1.90;;
25913;SDS011;13718;50.922;5.346;2022-09-21T15:12:39;5.05;;;2.05;;
25913;SDS011;13718;50.922;5.346;2022-09-21T15:18:01;5.22;;;1.67;;
25913;SDS011;13718;50.922;5.346;2022-09-21T15:20:41;9.20;;;2.22;;
25913;SDS011;13718;50.922;5.346;2022-09-21T15:23:15;7.28;;;1.90;;
25913;SDS011;13718;50.922;5.346;2022-09-21T15:25:44;5.85;;;1.95;;
25913;SDS011;13718;50.922;5.346;2022-09-21T15:28:22;11.52;;;2.40;;
25913;SDS011;13718;50.922;5.346;2022-09-21T15:30:50;9.63;;;1.55;;
25913;SDS011;13718;50.922;5.346;2022-09-21T15:33:21;6.93;;;1.80;;
25913;SDS011;13718;50.922;5.346;2022-09-21T15:35:46;7.82;;;1.70;;
25913;SDS011;13718;50.922;5.346;2022-09-21T15:38:26;5.28;;;1.50;;
25913;SDS011;13718;50.922;5.346;2022-09-21T15:40:53;7.15;;;1.45;;
25913;SDS011;13718;50.922;5.346;2022-09-21T15:43:19;6.38;;;1.60;;
25913;SDS011;13718;50.922;5.346;2022-09-21T15:48:10;8.98;;;2.00;;
25913;SDS011;13718;50.922;5.346;2022-09-21T15:50:37;9.35;;;1.83;;
25913;SDS011;13718;50.922;5.346;2022-09-21T15:53:06;5.80;;;1.80;;
25913;SDS011;13718;50.922;5.346;2022-09-21T15:55:39;5.13;;;1.60;;
25913;SDS011;13718;50.922;5.346;2022-09-21T15:58:13;5.75;;;2.03;;
25913;SDS011;13718;50.922;5.346;2022-09-21T16:00:53;7.78;;;1.98;;
25913;SDS011;13718;50.922;5.346;2022-09-21T16:03:20;6.72;;;2.00;;
25913;SDS011;13718;50.922;5.346;2022-09-21T16:05:49;4.70;;;1.98;;
25913;SDS011;13718;50.922;5.346;2022-09-21T16:08:31;13.20;;;1.90;;
25913;SDS011;13718;50.922;5.346;2022-09-21T16:13:57;9.38;;;2.30;;
25913;SDS011;13718;50.922;5.346;2022-09-21T16:22:39;4.68;;;1.58;;
25913;SDS011;13718;50.922;5.346;2022-09-21T16:25:25;6.20;;;1.90;;
25913;SDS011;13718;50.922;5.346;2022-09-21T16:27:59;3.42;;;1.90;;
25913;SDS011;13718;50.922;5.346;2022-09-21T16:30:37;5.72;;;1.98;;
25913;SDS011;13718;50.922;5.346;2022-09-21T16:38:55;5.28;;;1.65;;
25913;SDS011;13718;50.922;5.346;2022-09-21T16:41:21;6.03;;;1.83;;
25913;SDS011;13718;50.922;5.346;2022-09-21T16:43:57;6.47;;;1.58;;
25913;SDS011;13718;50.922;5.346;2022-09-21T16:46:24;5.35;;;1.70;;
25913;SDS011;13718;50.922;5.346;2022-09-21T16:48:51;6.25;;;1.40;;
25913;SDS011;13718;50.922;5.346;2022-09-21T16:51:19;8.90;;;1.88;;
25913;SDS011;13718;50.922;5.346;2022-09-21T16:53:48;5.97;;;1.20;;
25913;SDS011;13718;50.922;5.346;2022-09-21T16:56:14;4.97;;;1.48;;
25913;SDS011;13718;50.922;5.346;2022-09-21T16:58:41;3.60;;;1.15;;
25913;SDS011;13718;50.922;5.346;2022-09-21T17:01:08;6.25;;;1.55;;
25913;SDS011;13718;50.922;5.346;2022-09-21T17:03:45;6.38;;;1.40;;
25913;SDS011;13718;50.922;5.346;2022-09-21T17:06:18;6.43;;;1.42;;
25913;SDS011;13718;50.922;5.346;2022-09-21T17:08:46;3.05;;;1.50;;
25913;SDS011;13718;50.922;5.346;2022-09-21T17:11:16;5.32;;;1.60;;
25913;SDS011;13718;50.922;5.346;2022-09-21T17:13:47;3.53;;;1.40;;
25913;SDS011;13718;50.922;5.346;2022-09-21T17:16:13;3.75;;;1.33;;
25913;SDS011;13718;50.922;5.346;2022-09-21T17:18:42;4.53;;;1.48;;
25913;SDS011;13718;50.922;5.346;2022-09-21T17:23:40;4.78;;;1.33;;
25913;SDS011;13718;50.922;5.346;2022-09-21T17:26:15;6.60;;;1.48;;
25913;SDS011;13718;50.922;5.346;2022-09-21T17:28:43;7.32;;;1.50;;
25913;SDS011;13718;50.922;5.346;2022-09-21T17:31:14;4.68;;;1.33;;
25913;SDS011;13718;50.922;5.346;2022-09-21T17:33:40;2.72;;;1.77;;
25913;SDS011;13718;50.922;5.346;2022-09-21T17:36:10;3.40;;;1.38;;
25913;SDS011;13718;50.922;5.346;2022-09-21T17:38:37;3.00;;;1.30;;
25913;SDS011;13718;50.922;5.346;2022-09-21T17:41:05;6.20;;;1.40;;
25913;SDS011;13718;50.922;5.346;2022-09-21T17:44:02;8.00;;;1.48;;
25913;SDS011;13718;50.922;5.346;2022-09-21T17:49:19;6.15;;;1.70;;
25913;SDS011;13718;50.922;5.346;2022-09-21T17:51:45;6.53;;;1.85;;
25913;SDS011;13718;50.922;5.346;2022-09-21T17:54:29;6.40;;;1.77;;
25913;SDS011;13718;50.922;5.346;2022-09-21T17:59:43;7.13;;;1.80;;
25913;SDS011;13718;50.922;5.346;2022-09-21T18:02:19;6.35;;;1.70;;
25913;SDS011;13718;50.922;5.346;2022-09-21T18:04:47;6.65;;;1.70;;
25913;SDS011;13718;50.922;5.346;2022-09-21T18:07:16;5.22;;;1.80;;
25913;SDS011;13718;50.922;5.346;2022-09-21T18:09:43;7.70;;;2.35;;
25913;SDS011;13718;50.922;5.346;2022-09-21T18:25:50;6.30;;;2.33;;
25913;SDS011;13718;50.922;5.346;2022-09-21T18:28:42;6.90;;;2.80;;
25913;SDS011;13718;50.922;5.346;2022-09-21T18:36:28;12.63;;;4.25;;
25913;SDS011;13718;50.922;5.346;2022-09-21T18:41:48;11.38;;;5.07;;
25913;SDS011;13718;50.922;5.346;2022-09-21T18:44:36;10.88;;;4.25;;
25913;SDS011;13718;50.922;5.346;2022-09-21T18:47:10;12.13;;;4.80;;
25913;SDS011;13718;50.922;5.346;2022-09-21T18:54:53;10.90;;;6.10;;
25913;SDS011;13718;50.922;5.346;2022-09-21T18:57:19;11.02;;;4.93;;
25913;SDS011;13718;50.922;5.346;2022-09-21T18:59:47;12.93;;;6.32;;
25913;SDS011;13718;50.922;5.346;2022-09-21T19:02:17;13.55;;;5.78;;
25913;SDS011;13718;50.922;5.346;2022-09-21T19:04:44;10.55;;;5.72;;
25913;SDS011;13718;50.922;5.346;2022-09-21T19:23:40;13.38;;;4.97;;
25913;SDS011;13718;50.922;5.346;2022-09-21T19:31:55;12.35;;;4.88;;
25913;SDS011;13718;50.922;5.346;2022-09-21T19:34:21;11.18;;;4.90;;